^^
Meteo Knjazevac Station Historical Data
Daily Summary for March 9, 2021 Units:  Both    English   Metric
Daily Weekly Monthly Yearly Custom
  High: Low: Average:
Temperature: 40 °F /  4.4 °C 26.1 °F /  -3.3 °C 32.6 °F /  0.3 °C
Dew Point: 36.7 °F /  2.6 °C 25.8 °F /  -3.4 °C 31.6 °F /  -0.2 °C
Humidity: 99% 88% 96%
Wind Speed: 7mph /  11.3km/h - 2.5mph /  4km/h
Wind Gust: 15mph /  24.1km/h - -
Wind- - SE
Pressure: 29.88 in /  1011.7 hPa 29.78 in /  1008.4 hPa -
Precipitation: 0.01 in /  0.25 mm    
Historical Graphs
 
 
Tabular Data for March 9, 2021
Time Temperature Dew Point Pressure Wind Wind Speed Wind Gust Humidity Rainfall Rate (Hourly) solar Conditions
00:00 26.4 °F /  -3.1 °C 25.9 °F /  -3.4 °C 29.88in /  1011.7hPa WNW 2mph /  3.2km/h 4mph /  6.4km/h 98% 0.00in /  0mm 0 W/m2
00:10 26.4 °F /  -3.1 °C 25.9 °F /  -3.4 °C 29.87in /  1011.4hPa WNW 2mph /  3.2km/h 3mph /  4.8km/h 98% 0.00in /  0mm 0 W/m2
00:20 26.2 °F /  -3.2 °C 25.8 °F /  -3.4 °C 29.88in /  1011.7hPa WNW 3mph /  4.8km/h 4mph /  6.4km/h 98% 0.00in /  0mm 0 W/m2
00:30 26.4 °F /  -3.1 °C 26.2 °F /  -3.2 °C 29.87in /  1011.4hPa NW 2mph /  3.2km/h 5mph /  8km/h 99% 0.00in /  0mm 0 W/m2
00:40 26.6 °F /  -3 °C 26.4 °F /  -3.1 °C 29.86in /  1011.1hPa NW 3mph /  4.8km/h 5mph /  8km/h 99% 0.00in /  0mm 0 W/m2
00:50 27.3 °F /  -2.6 °C 27.1 °F /  -2.7 °C 29.86in /  1011.1hPa SSW 5mph /  8km/h 11mph /  17.7km/h 99% 0.00in /  0mm 0 W/m2
01:00 28 °F /  -2.2 °C 27.5 °F /  -2.5 °C 29.86in /  1011.1hPa WSW 3mph /  4.8km/h 10mph /  16.1km/h 98% 0.00in /  0mm 0 W/m2
01:10 28 °F /  -2.2 °C 27.5 °F /  -2.5 °C 29.86in /  1011.1hPa WNW 1mph /  1.6km/h 6mph /  9.7km/h 98% 0.00in /  0mm 0 W/m2
01:20 27.7 °F /  -2.4 °C 27.2 °F /  -2.7 °C 29.86in /  1011.1hPa NW 3mph /  4.8km/h 5mph /  8km/h 98% 0.00in /  0mm 0 W/m2
01:30 27.7 °F /  -2.4 °C 27.2 °F /  -2.7 °C 29.86in /  1011.1hPa North 2mph /  3.2km/h 5mph /  8km/h 98% 0.00in /  0mm 0 W/m2
01:40 27.3 °F /  -2.6 °C 26.8 °F /  -2.9 °C 29.87in /  1011.4hPa WNW 3mph /  4.8km/h 5mph /  8km/h 98% 0.00in /  0mm 0 W/m2
01:50 27.3 °F /  -2.6 °C 26.8 °F /  -2.9 °C 29.86in /  1011.1hPa NW 2mph /  3.2km/h 5mph /  8km/h 98% 0.00in /  0mm 0 W/m2
02:00 27.5 °F /  -2.5 °C 27 °F /  -2.8 °C 29.86in /  1011.1hPa NNW 2mph /  3.2km/h 3mph /  4.8km/h 98% 0.00in /  0mm 0 W/m2
02:10 27.1 °F /  -2.7 °C 26.7 °F /  -2.9 °C 29.86in /  1011.1hPa NW 1mph /  1.6km/h 4mph /  6.4km/h 98% 0.00in /  0mm 0 W/m2
02:20 27 °F /  -2.8 °C 26.5 °F /  -3.1 °C 29.86in /  1011.1hPa Calm   3mph /  4.8km/h 98% 0.00in /  0mm 0 W/m2
02:30 26.8 °F /  -2.9 °C 26.3 °F /  -3.2 °C 29.86in /  1011.1hPa NW 1mph /  1.6km/h 3mph /  4.8km/h 98% 0.00in /  0mm 0 W/m2
02:40 26.6 °F /  -3 °C 26.1 °F /  -3.3 °C 29.85in /  1010.7hPa NW 1mph /  1.6km/h 4mph /  6.4km/h 98% 0.00in /  0mm 0 W/m2
02:50 26.4 °F /  -3.1 °C 25.9 °F /  -3.4 °C 29.85in /  1010.7hPa WNW 3mph /  4.8km/h 6mph /  9.7km/h 98% 0.00in /  0mm 0 W/m2
03:00 26.4 °F /  -3.1 °C 25.9 °F /  -3.4 °C 29.85in /  1010.7hPa NW 2mph /  3.2km/h 5mph /  8km/h 98% 0.00in /  0mm 0 W/m2
03:10 26.2 °F /  -3.2 °C 25.8 °F /  -3.4 °C 29.85in /  1010.7hPa WNW 2mph /  3.2km/h 3mph /  4.8km/h 98% 0.00in /  0mm 0 W/m2
03:20 26.2 °F /  -3.2 °C 25.8 °F /  -3.4 °C 29.85in /  1010.7hPa Calm   3mph /  4.8km/h 98% 0.00in /  0mm 0 W/m2
03:30 26.1 °F /  -3.3 °C 25.8 °F /  -3.4 °C 29.85in /  1010.7hPa NNW 2mph /  3.2km/h 4mph /  6.4km/h 99% 0.00in /  0mm 0 W/m2
03:40 26.2 °F /  -3.2 °C 26 °F /  -3.3 °C 29.85in /  1010.7hPa NW 2mph /  3.2km/h 3mph /  4.8km/h 99% 0.00in /  0mm 0 W/m2
03:50 26.1 °F /  -3.3 °C 25.8 °F /  -3.4 °C 29.85in /  1010.7hPa NW 1mph /  1.6km/h 3mph /  4.8km/h 99% 0.00in /  0mm 0 W/m2
04:00 26.6 °F /  -3 °C 26.4 °F /  -3.1 °C 29.85in /  1010.7hPa NNW 2mph /  3.2km/h 5mph /  8km/h 99% 0.00in /  0mm 0 W/m2
04:10 27.1 °F /  -2.7 °C 26.9 °F /  -2.8 °C 29.85in /  1010.7hPa Calm   4mph /  6.4km/h 99% 0.00in /  0mm 0 W/m2
04:20 26.6 °F /  -3 °C 26.4 °F /  -3.1 °C 29.85in /  1010.7hPa NW 1mph /  1.6km/h 3mph /  4.8km/h 99% 0.00in /  0mm 0 W/m2
04:30 26.4 °F /  -3.1 °C 26.2 °F /  -3.2 °C 29.85in /  1010.7hPa NNE 1mph /  1.6km/h 7mph /  11.3km/h 99% 0.00in /  0mm 0 W/m2
04:40 26.8 °F /  -2.9 °C 26.5 °F /  -3.1 °C 29.84in /  1010.4hPa SE 2mph /  3.2km/h 9mph /  14.5km/h 99% 0.00in /  0mm 0 W/m2
04:50 27.1 °F /  -2.7 °C 26.9 °F /  -2.8 °C 29.85in /  1010.7hPa Calm   4mph /  6.4km/h 99% 0.00in /  0mm 0 W/m2
05:00 26.8 °F /  -2.9 °C 26.5 °F /  -3.1 °C 29.84in /  1010.4hPa WNW 1mph /  1.6km/h 5mph /  8km/h 99% 0.00in /  0mm 0 W/m2
05:10 27 °F /  -2.8 °C 26.7 °F /  -2.9 °C 29.84in /  1010.4hPa NNW 2mph /  3.2km/h 4mph /  6.4km/h 99% 0.00in /  0mm 0 W/m2
05:20 27.2 °F /  -2.7 °C 26.9 °F /  -2.8 °C 29.84in /  1010.4hPa North 3mph /  4.8km/h 5mph /  8km/h 99% 0.00in /  0mm 0 W/m2
05:30 28.2 °F /  -2.1 °C 28 °F /  -2.2 °C 29.84in /  1010.4hPa North 1mph /  1.6km/h 6mph /  9.7km/h 99% 0.00in /  0mm 0 W/m2
05:40 28.4 °F /  -2 °C 28.2 °F /  -2.1 °C 29.84in /  1010.4hPa NNW 1mph /  1.6km/h 4mph /  6.4km/h 99% 0.00in /  0mm 0 W/m2
05:50 28.6 °F /  -1.9 °C 28.3 °F /  -2.1 °C 29.85in /  1010.7hPa NNW 2mph /  3.2km/h 6mph /  9.7km/h 99% 0.00in /  0mm 0 W/m2
06:00 28.9 °F /  -1.7 °C 28.7 °F /  -1.8 °C 29.85in /  1010.7hPa Calm   5mph /  8km/h 99% 0.00in /  0mm 0 W/m2
06:10 28.9 °F /  -1.7 °C 28.7 °F /  -1.8 °C 29.85in /  1010.7hPa SE 5mph /  8km/h 12mph /  19.3km/h 99% 0.00in /  0mm 0 W/m2
06:20 29.1 °F /  -1.6 °C 28.9 °F /  -1.7 °C 29.84in /  1010.4hPa SSE 1mph /  1.6km/h 12mph /  19.3km/h 99% 0.00in /  0mm 0 W/m2
06:30 30 °F /  -1.1 °C 29.8 °F /  -1.2 °C 29.85in /  1010.7hPa ESE 3mph /  4.8km/h 10mph /  16.1km/h 99% 0.00in /  0mm 0 W/m2
06:40 30.9 °F /  -0.6 °C 30.7 °F /  -0.7 °C 29.85in /  1010.7hPa SE 1mph /  1.6km/h 12mph /  19.3km/h 99% 0.00in /  0mm 0 W/m2
06:50 31.3 °F /  -0.4 °C 30.8 °F /  -0.7 °C 29.85in /  1010.7hPa NNE 2mph /  3.2km/h 3mph /  4.8km/h 98% 0.00in /  0mm 0 W/m2
07:00 31.3 °F /  -0.4 °C 30.8 °F /  -0.7 °C 29.85in /  1010.7hPa NNE 1mph /  1.6km/h 5mph /  8km/h 98% 0.00in /  0mm 6 W/m2
07:10 30.9 °F /  -0.6 °C 29.9 °F /  -1.2 °C 29.85in /  1010.7hPa NNE 1mph /  1.6km/h 6mph /  9.7km/h 96% 0.00in /  0mm 8 W/m2
07:20 30.7 °F /  -0.7 °C 30.2 °F /  -1 °C 29.84in /  1010.4hPa NNE 1mph /  1.6km/h 6mph /  9.7km/h 98% 0.00in /  0mm 23 W/m2
07:30 30.7 °F /  -0.7 °C 30.2 °F /  -1 °C 29.84in /  1010.4hPa Calm   3mph /  4.8km/h 98% 0.00in /  0mm 39 W/m2
07:40 30.7 °F /  -0.7 °C 30.2 °F /  -1 °C 29.84in /  1010.4hPa NE 1mph /  1.6km/h 3mph /  4.8km/h 98% 0.00in /  0mm 47 W/m2
07:50 30.7 °F /  -0.7 °C 30.2 °F /  -1 °C 29.84in /  1010.4hPa WNW 1mph /  1.6km/h 2mph /  3.2km/h 98% 0.00in /  0mm 69 W/m2
08:00 31 °F /  -0.6 °C 30.5 °F /  -0.8 °C 29.84in /  1010.4hPa NW 1mph /  1.6km/h 3mph /  4.8km/h 98% 0.00in /  0mm 85 W/m2
08:10 31.5 °F /  -0.3 °C 31 °F /  -0.6 °C 29.84in /  1010.4hPa North 3mph /  4.8km/h 6mph /  9.7km/h 98% 0.00in /  0mm 96 W/m2
08:20 32 °F /  0 °C 31.5 °F /  -0.3 °C 29.84in /  1010.4hPa NNE 2mph /  3.2km/h 6mph /  9.7km/h 98% 0.00in /  0mm 120 W/m2
08:30 32.5 °F /  0.3 °C 32 °F /  0 °C 29.85in /  1010.7hPa NNW 1mph /  1.6km/h 5mph /  8km/h 98% 0.00in /  0mm 103 W/m2
08:40 32.9 °F /  0.5 °C 32.4 °F /  0.2 °C 29.85in /  1010.7hPa Calm   6mph /  9.7km/h 98% 0.00in /  0mm 91 W/m2
08:50 33.3 °F /  0.7 °C 32.8 °F /  0.4 °C 29.85in /  1010.7hPa Calm   5mph /  8km/h 98% 0.00in /  0mm 188 W/m2
09:00 33.8 °F /  1 °C 33.3 °F /  0.7 °C 29.85in /  1010.7hPa NNE 3mph /  4.8km/h 7mph /  11.3km/h 98% 0.00in /  0mm 125 W/m2
09:10 34 °F /  1.1 °C 33 °F /  0.6 °C 29.84in /  1010.4hPa NNE 7mph /  11.3km/h 10mph /  16.1km/h 96% 0.00in /  0mm 110 W/m2
09:20 34 °F /  1.1 °C 32.7 °F /  0.4 °C 29.85in /  1010.7hPa NNE 7mph /  11.3km/h 10mph /  16.1km/h 95% 0.00in /  0mm 103 W/m2
09:30 34 °F /  1.1 °C 32.7 °F /  0.4 °C 29.85in /  1010.7hPa NNE 5mph /  8km/h 9mph /  14.5km/h 95% 0.00in /  0mm 119 W/m2
09:40 34 °F /  1.1 °C 32.7 °F /  0.4 °C 29.85in /  1010.7hPa NNE 1mph /  1.6km/h 6mph /  9.7km/h 95% 0.00in /  0mm 123 W/m2
09:50 34 °F /  1.1 °C 32.7 °F /  0.4 °C 29.85in /  1010.7hPa NNE 5mph /  8km/h 6mph /  9.7km/h 95% 0.00in /  0mm 136 W/m2
10:00 34.3 °F /  1.3 °C 33.1 °F /  0.6 °C 29.84in /  1010.4hPa NNE 5mph /  8km/h 10mph /  16.1km/h 95% 0.00in /  0mm 181 W/m2
10:10 34.5 °F /  1.4 °C 33.2 °F /  0.7 °C 29.84in /  1010.4hPa NNE 3mph /  4.8km/h 10mph /  16.1km/h 95% 0.00in /  0mm 164 W/m2
10:20 34.7 °F /  1.5 °C 33.2 °F /  0.7 °C 29.84in /  1010.4hPa NNE 7mph /  11.3km/h 9mph /  14.5km/h 94% 0.00in /  0mm 171 W/m2
10:30 34.9 °F /  1.6 °C 33.3 °F /  0.7 °C 29.84in /  1010.4hPa NNE 1mph /  1.6km/h 9mph /  14.5km/h 94% 0.00in /  0mm 175 W/m2
10:40 35.1 °F /  1.7 °C 33.5 °F /  0.8 °C 29.83in /  1010hPa NNE 2mph /  3.2km/h 7mph /  11.3km/h 94% 0.00in /  0mm 175 W/m2
10:50 35.4 °F /  1.9 °C 33.9 °F /  1.1 °C 29.83in /  1010hPa North 5mph /  8km/h 7mph /  11.3km/h 94% 0.00in /  0mm 199 W/m2
11:00 36.2 °F /  2.3 °C 34.6 °F /  1.4 °C 29.83in /  1010hPa North 3mph /  4.8km/h 6mph /  9.7km/h 94% 0.00in /  0mm 333 W/m2
11:10 37.3 °F /  2.9 °C 35.7 °F /  2.1 °C 29.83in /  1010hPa NNE 5mph /  8km/h 12mph /  19.3km/h 94% 0.00in /  0mm 335 W/m2
11:20 37.9 °F /  3.3 °C 35.5 °F /  1.9 °C 29.84in /  1010.4hPa NNE 5mph /  8km/h 9mph /  14.5km/h 91% 0.00in /  0mm 276 W/m2
11:30 38.2 °F /  3.4 °C 35.8 °F /  2.1 °C 29.83in /  1010hPa NNE 5mph /  8km/h 9mph /  14.5km/h 91% 0.00in /  0mm 336 W/m2
11:40 38.5 °F /  3.6 °C 35.8 °F /  2.1 °C 29.83in /  1010hPa North 2mph /  3.2km/h 12mph /  19.3km/h 90% 0.00in /  0mm 321 W/m2
11:50 38.5 °F /  3.6 °C 35.8 °F /  2.1 °C 29.83in /  1010hPa North 5mph /  8km/h 11mph /  17.7km/h 90% 0.00in /  0mm 276 W/m2
12:00 38.8 °F /  3.8 °C 36.2 °F /  2.3 °C 29.83in /  1010hPa North 5mph /  8km/h 10mph /  16.1km/h 90% 0.00in /  0mm 320 W/m2
12:10 39 °F /  3.9 °C 36.1 °F /  2.3 °C 29.82in /  1009.7hPa North 6mph /  9.7km/h 12mph /  19.3km/h 89% 0.00in /  0mm 293 W/m2
12:20 39.2 °F /  4 °C 36.2 °F /  2.3 °C 29.82in /  1009.7hPa North 5mph /  8km/h 12mph /  19.3km/h 89% 0.00in /  0mm 286 W/m2
12:30 39.4 °F /  4.1 °C 36.4 °F /  2.4 °C 29.81in /  1009.4hPa North 3mph /  4.8km/h 10mph /  16.1km/h 89% 0.00in /  0mm 303 W/m2
12:40 39.6 °F /  4.2 °C 36.6 °F /  2.6 °C 29.81in /  1009.4hPa NNE 7mph /  11.3km/h 12mph /  19.3km/h 89% 0.00in /  0mm 293 W/m2
12:50 40 °F /  4.4 °C 36.7 °F /  2.6 °C 29.81in /  1009.4hPa North 7mph /  11.3km/h 13mph /  20.9km/h 88% 0.00in /  0mm 278 W/m2
13:00 39.9 °F /  4.4 °C 36.6 °F /  2.6 °C 29.81in /  1009.4hPa North 5mph /  8km/h 12mph /  19.3km/h 88% 0.00in /  0mm 245 W/m2
13:10 39.7 °F /  4.3 °C 36.5 °F /  2.5 °C 29.81in /  1009.4hPa North 5mph /  8km/h 12mph /  19.3km/h 88% 0.00in /  0mm 250 W/m2
13:20 39.6 °F /  4.2 °C 36.3 °F /  2.4 °C 29.81in /  1009.4hPa North 7mph /  11.3km/h 12mph /  19.3km/h 88% 0.00in /  0mm 175 W/m2
13:30 39 °F /  3.9 °C 35.8 °F /  2.1 °C 29.80in /  1009hPa North 5mph /  8km/h 12mph /  19.3km/h 88% 0.00in /  0mm 150 W/m2
13:40 38.5 °F /  3.6 °C 35.2 °F /  1.8 °C 29.80in /  1009hPa North 5mph /  8km/h 12mph /  19.3km/h 88% 0.00in /  0mm 138 W/m2
13:50 38.1 °F /  3.4 °C 35.2 °F /  1.8 °C 29.80in /  1009hPa North 2mph /  3.2km/h 12mph /  19.3km/h 89% 0.00in /  0mm 150 W/m2
14:00 37.8 °F /  3.2 °C 34.8 °F /  1.6 °C 29.81in /  1009.4hPa North 5mph /  8km/h 9mph /  14.5km/h 89% 0.00in /  0mm 173 W/m2
14:10 37.6 °F /  3.1 °C 34.6 °F /  1.4 °C 29.80in /  1009hPa North 3mph /  4.8km/h 13mph /  20.9km/h 89% 0.00in /  0mm 155 W/m2
14:20 37.2 °F /  2.9 °C 34.2 °F /  1.2 °C 29.80in /  1009hPa North 5mph /  8km/h 14mph /  22.5km/h 89% 0.00in /  0mm 93 W/m2
14:30 36.6 °F /  2.6 °C 34 °F /  1.1 °C 29.81in /  1009.4hPa North 5mph /  8km/h 12mph /  19.3km/h 90% 0.00in /  0mm 69 W/m2
14:40 36.1 °F /  2.3 °C 33.5 °F /  0.8 °C 29.81in /  1009.4hPa North 5mph /  8km/h 13mph /  20.9km/h 90% 0.00in /  0mm 62 W/m2
14:50 35.8 °F /  2.1 °C 33.4 °F /  0.8 °C 29.80in /  1009hPa North 5mph /  8km/h 12mph /  19.3km/h 91% 0.00in /  0mm 46 W/m2
15:00 35.4 °F /  1.9 °C 33 °F /  0.6 °C 29.80in /  1009hPa North 3mph /  4.8km/h 11mph /  17.7km/h 91% 0.00in /  0mm 51 W/m2
15:10 35.1 °F /  1.7 °C 33.2 °F /  0.7 °C 29.80in /  1009hPa North 5mph /  8km/h 14mph /  22.5km/h 93% 0.00in /  0mm 42 W/m2
15:20 34.9 °F /  1.6 °C 33.1 °F /  0.6 °C 29.80in /  1009hPa North 5mph /  8km/h 9mph /  14.5km/h 93% 0.00in /  0mm 26 W/m2
15:30 34.6 °F /  1.4 °C 33.1 °F /  0.6 °C 29.81in /  1009.4hPa NNE 2mph /  3.2km/h 13mph /  20.9km/h 94% 0.00in /  0mm 11 W/m2
15:40 34.3 °F /  1.3 °C 32.8 °F /  0.4 °C 29.81in /  1009.4hPa North 3mph /  4.8km/h 15mph /  24.1km/h 94% 0.00in /  0mm 12 W/m2
15:50 34.2 °F /  1.2 °C 32.6 °F /  0.3 °C 29.80in /  1009hPa North 3mph /  4.8km/h 8mph /  12.9km/h 94% 0.00in /  0mm 4 W/m2
16:00 34 °F /  1.1 °C 32.4 °F /  0.2 °C 29.81in /  1009.4hPa NNW 2mph /  3.2km/h 6mph /  9.7km/h 94% 0.00in /  0mm 0 W/m2
16:10 33.8 °F /  1 °C 32.5 °F /  0.3 °C 29.81in /  1009.4hPa North 1mph /  1.6km/h 6mph /  9.7km/h 95% 0.00in /  0mm 0 W/m2
16:20 33.6 °F /  0.9 °C 32.3 °F /  0.2 °C 29.81in /  1009.4hPa North 2mph /  3.2km/h 8mph /  12.9km/h 95% 0.00in /  0mm 0 W/m2
16:30 33.6 °F /  0.9 °C 32.3 °F /  0.2 °C 29.81in /  1009.4hPa North 5mph /  8km/h 10mph /  16.1km/h 95% 0.00in /  0mm 0 W/m2
16:40 33.4 °F /  0.8 °C 32.2 °F /  0.1 °C 29.80in /  1009hPa NNE 2mph /  3.2km/h 7mph /  11.3km/h 95% 0.00in /  0mm 0 W/m2
16:50 33.3 °F /  0.7 °C 32 °F /  0 °C 29.81in /  1009.4hPa Calm   6mph /  9.7km/h 95% 0.00in /  0mm 0 W/m2
17:00 33.3 °F /  0.7 °C 32.2 °F /  0.1 °C 29.81in /  1009.4hPa North 2mph /  3.2km/h 7mph /  11.3km/h 96% 0.00in /  0mm 0 W/m2
17:10 33.3 °F /  0.7 °C 32.2 °F /  0.1 °C 29.80in /  1009hPa NE 1mph /  1.6km/h 5mph /  8km/h 96% 0.00in /  0mm 0 W/m2
17:20 33.3 °F /  0.7 °C 32.2 °F /  0.1 °C 29.80in /  1009hPa North 1mph /  1.6km/h 4mph /  6.4km/h 96% 0.00in /  0mm 0 W/m2
17:30 33.1 °F /  0.6 °C 32.1 °F /  0.1 °C 29.80in /  1009hPa NNW 2mph /  3.2km/h 6mph /  9.7km/h 96% 0.00in /  0mm 0 W/m2
17:40 33.3 °F /  0.7 °C 32.8 °F /  0.4 °C 29.80in /  1009hPa NNE 3mph /  4.8km/h 7mph /  11.3km/h 98% 0.00in /  0mm 0 W/m2
17:50 33.3 °F /  0.7 °C 32.8 °F /  0.4 °C 29.80in /  1009hPa North 2mph /  3.2km/h 8mph /  12.9km/h 98% 0.00in /  0mm 0 W/m2
18:00 33.3 °F /  0.7 °C 32.8 °F /  0.4 °C 29.79in /  1008.7hPa North 2mph /  3.2km/h 7mph /  11.3km/h 98% 0.00in /  0mm 0 W/m2
18:10 33.4 °F /  0.8 °C 32.9 °F /  0.5 °C 29.80in /  1009hPa North 1mph /  1.6km/h 11mph /  17.7km/h 98% 0.00in /  0mm 0 W/m2
18:20 33.4 °F /  0.8 °C 32.9 °F /  0.5 °C 29.79in /  1008.7hPa North 1mph /  1.6km/h 6mph /  9.7km/h 98% 0.00in /  0mm 0 W/m2
18:30 33.6 °F /  0.9 °C 33.4 °F /  0.8 °C 29.78in /  1008.4hPa North 3mph /  4.8km/h 7mph /  11.3km/h 99% 0.00in /  0mm 0 W/m2
18:40 33.6 °F /  0.9 °C 33.4 °F /  0.8 °C 29.79in /  1008.7hPa NNE 2mph /  3.2km/h 8mph /  12.9km/h 99% 0.00in /  0mm 0 W/m2
18:50 33.6 °F /  0.9 °C 33.4 °F /  0.8 °C 29.79in /  1008.7hPa North 2mph /  3.2km/h 8mph /  12.9km/h 99% 0.00in /  0mm 0 W/m2
19:00 33.8 °F /  1 °C 33.5 °F /  0.8 °C 29.79in /  1008.7hPa NNW 1mph /  1.6km/h 7mph /  11.3km/h 99% 0.00in /  0mm 0 W/m2
19:10 33.8 °F /  1 °C 33.5 °F /  0.8 °C 29.79in /  1008.7hPa NNW 1mph /  1.6km/h 6mph /  9.7km/h 99% 0.00in /  0mm 0 W/m2
19:20 34 °F /  1.1 °C 33.7 °F /  0.9 °C 29.79in /  1008.7hPa North 1mph /  1.6km/h 4mph /  6.4km/h 99% 0.00in /  0mm 0 W/m2
19:30 34 °F /  1.1 °C 33.7 °F /  0.9 °C 29.79in /  1008.7hPa North 3mph /  4.8km/h 6mph /  9.7km/h 99% 0.00in /  0mm 0 W/m2
19:40 34 °F /  1.1 °C 33.7 °F /  0.9 °C 29.79in /  1008.7hPa North 3mph /  4.8km/h 5mph /  8km/h 99% 0.00in /  0mm 0 W/m2
19:50 34.1 °F /  1.2 °C 33.8 °F /  1 °C 29.79in /  1008.7hPa NNE 2mph /  3.2km/h 5mph /  8km/h 99% 0.00in /  0mm 0 W/m2
20:00 34.2 °F /  1.2 °C 33.9 °F /  1.1 °C 29.79in /  1008.7hPa NNE 1mph /  1.6km/h 5mph /  8km/h 99% 0.00in /  0mm 0 W/m2
20:10 34.2 °F /  1.2 °C 33.9 °F /  1.1 °C 29.79in /  1008.7hPa NE 1mph /  1.6km/h 5mph /  8km/h 99% 0.00in /  0mm 0 W/m2
20:20 34.2 °F /  1.2 °C 33.9 °F /  1.1 °C 29.80in /  1009hPa Calm   3mph /  4.8km/h 99% 0.00in /  0mm 0 W/m2
20:30 34.2 °F /  1.2 °C 33.9 °F /  1.1 °C 29.80in /  1009hPa North 2mph /  3.2km/h 5mph /  8km/h 99% 0.00in /  0mm 0 W/m2
20:40 34.2 °F /  1.2 °C 33.9 °F /  1.1 °C 29.80in /  1009hPa North 3mph /  4.8km/h 6mph /  9.7km/h 99% 0.00in /  0mm 0 W/m2
20:50 34.3 °F /  1.3 °C 34.1 °F /  1.2 °C 29.81in /  1009.4hPa North 1mph /  1.6km/h 6mph /  9.7km/h 99% 0.00in /  0mm 0 W/m2
21:00 34.4 °F /  1.3 °C 34.2 °F /  1.2 °C 29.82in /  1009.7hPa NW 1mph /  1.6km/h 4mph /  6.4km/h 99% 0.00in /  0mm 0 W/m2
21:10 34.5 °F /  1.4 °C 34.3 °F /  1.3 °C 29.82in /  1009.7hPa WNW 1mph /  1.6km/h 4mph /  6.4km/h 99% 0.00in /  0mm 0 W/m2
21:20 34.5 °F /  1.4 °C 34.3 °F /  1.3 °C 29.82in /  1009.7hPa NNE 2mph /  3.2km/h 5mph /  8km/h 99% 0.00in /  0mm 0 W/m2
21:30 34.5 °F /  1.4 °C 34.3 °F /  1.3 °C 29.82in /  1009.7hPa NNE 1mph /  1.6km/h 5mph /  8km/h 99% 0.00in /  0mm 0 W/m2
21:40 34.3 °F /  1.3 °C 34.1 °F /  1.2 °C 29.81in /  1009.4hPa NNW 1mph /  1.6km/h 5mph /  8km/h 99% 0.00in /  0mm 0 W/m2
21:50 34.3 °F /  1.3 °C 34.1 °F /  1.2 °C 29.81in /  1009.4hPa NNW 1mph /  1.6km/h 7mph /  11.3km/h 99% 0.00in /  0mm 0 W/m2
22:00 34.3 °F /  1.3 °C 34.1 °F /  1.2 °C 29.82in /  1009.7hPa North 2mph /  3.2km/h 7mph /  11.3km/h 99% 0.00in /  0mm 0 W/m2
22:10 34.2 °F /  1.2 °C 33.9 °F /  1.1 °C 29.82in /  1009.7hPa North 3mph /  4.8km/h 7mph /  11.3km/h 99% 0.00in /  0mm 0 W/m2
22:20 34.2 °F /  1.2 °C 33.9 °F /  1.1 °C 29.82in /  1009.7hPa NNE 3mph /  4.8km/h 7mph /  11.3km/h 99% 0.00in /  0mm 0 W/m2
22:30 34.2 °F /  1.2 °C 33.9 °F /  1.1 °C 29.82in /  1009.7hPa NNE 3mph /  4.8km/h 7mph /  11.3km/h 99% 0.00in /  0mm 0 W/m2
22:40 34.1 °F /  1.2 °C 33.8 °F /  1 °C 29.82in /  1009.7hPa Calm   6mph /  9.7km/h 99% 0.01in /  0.25mm 0 W/m2
22:50 34 °F /  1.1 °C 33.7 °F /  0.9 °C 29.82in /  1009.7hPa North 1mph /  1.6km/h 5mph /  8km/h 99% 0.00in /  0mm 0 W/m2
23:00 34 °F /  1.1 °C 33.7 °F /  0.9 °C 29.82in /  1009.7hPa NNE 2mph /  3.2km/h 7mph /  11.3km/h 99% 0.00in /  0mm 0 W/m2
23:10 34 °F /  1.1 °C 33.7 °F /  0.9 °C 29.81in /  1009.4hPa North 1mph /  1.6km/h 6mph /  9.7km/h 99% 0.00in /  0mm 0 W/m2
23:20 34 °F /  1.1 °C 33.7 °F /  0.9 °C 29.81in /  1009.4hPa North 2mph /  3.2km/h 5mph /  8km/h 99% 0.00in /  0mm 0 W/m2
23:30 34 °F /  1.1 °C 33.7 °F /  0.9 °C 29.81in /  1009.4hPa NNE 1mph /  1.6km/h 6mph /  9.7km/h 99% 0.00in /  0mm 0 W/m2
23:40 33.8 °F /  1 °C 33.5 °F /  0.8 °C 29.81in /  1009.4hPa North 1mph /  1.6km/h 5mph /  8km/h 99% 0.00in /  0mm 0 W/m2
23:50 33.8 °F /  1 °C 33.5 °F /  0.8 °C 29.80in /  1009hPa Calm   3mph /  4.8km/h 99% 0.00in /  0mm 0 W/m2
Knjazevac, Serbia
Compliments of Weather Underground - 2 mb